CheckWX is a tool to help pilots better visualize weather data.  It is not intended as a substitute for an official pre-flight weather briefing.

09:40:11 UTC

KTOI TAF
Troy Municipal at N Kenneth Campbell Field Airport
Troy, Alabama, USA
KTOI 180729Z 1807/1906 12003KT P6SM FEW050 FM181000 12003KT 4SM BR BKN015 FM181400 24006KT P6SM VCSH OVC015 FM181800 20006KT 5SM -SHRA OVC035 PROB30 1819/1823 2SM TSRA BKN025CB FM190100 19003KT P6SM VCSH OVC050

Jun-18@
07:00 UTC

Jun-18 @ 07:00 UTC

Jun-18@
10:00 UTC

Jun-18 @ 10:00 UTC

KTOI 180729Z 1807/1906 12003KT P6SM FEW050
Wind
  • 120° at 3 KTS
Cloud Levels
  • Few at 5,000' AGL

Jun-18@
10:00 UTC

Jun-18 @ 10:00 UTC

Jun-18@
14:00 UTC

Jun-18 @ 14:00 UTC

FM181000 12003KT 4SM BR BKN015

From

From Standard forecast or significant change

Wind
  • 120° at 3 KTS
Conditions
Mist
Cloud Levels
  • Broken at 1,500' AGL

Jun-18@
14:00 UTC

Jun-18 @ 14:00 UTC

Jun-18@
18:00 UTC

Jun-18 @ 18:00 UTC

FM181400 24006KT P6SM VCSH OVC015

From

From Standard forecast or significant change

Wind
  • 240° at 6 KTS
Cloud Levels
  • Overcast at 1,500' AGL

Jun-18@
18:00 UTC

Jun-18 @ 18:00 UTC

Jun-19@
01:00 UTC

Jun-19 @ 01:00 UTC

FM181800 20006KT 5SM -SHRA OVC035

From

From Standard forecast or significant change

Wind
  • 200° at 6 KTS
Conditions
Light Rain
Cloud Levels
  • Overcast at 3,500' AGL

Jun-18@
19:00 UTC

Jun-18 @ 19:00 UTC

Jun-18@
23:00 UTC

Jun-18 @ 23:00 UTC

PROB30 1819/1823 2SM TSRA BKN025CB

Probable - 30% Likelihood

Probable - 30% Likelihood during this time.

Conditions
Thunderstorm, Rain
Cloud Levels
  • Broken at 2,500' AGL

Jun-19@
01:00 UTC

Jun-19 @ 01:00 UTC

Jun-19@
06:00 UTC

Jun-19 @ 06:00 UTC

FM190100 19003KT P6SM VCSH OVC050

From

From Standard forecast or significant change

Wind
  • 190° at 3 KTS
Cloud Levels
  • Overcast at 5,000' AGL